sensor_id;sensor_type;location;lat;lon;timestamp;pressure;altitude;pressure_sealevel;temperature;humidity
75945;BME280;64628;50.104;14.614;2023-04-25T00:01:54;97860.92;;;12.55;35.99
75945;BME280;64628;50.104;14.614;2023-04-25T00:04:20;97861.40;;;12.87;35.82
75945;BME280;64628;50.104;14.614;2023-04-25T00:06:45;97859.91;;;12.58;35.76
75945;BME280;64628;50.104;14.614;2023-04-25T00:09:10;97859.26;;;12.47;35.92
75945;BME280;64628;50.104;14.614;2023-04-25T00:11:36;97855.14;;;12.50;35.75
75945;BME280;64628;50.104;14.614;2023-04-25T00:14:01;97859.96;;;12.40;36.14
75945;BME280;64628;50.104;14.614;2023-04-25T00:16:26;97853.17;;;11.86;36.58
75945;BME280;64628;50.104;14.614;2023-04-25T00:18:52;97854.83;;;12.32;36.35
75945;BME280;64628;50.104;14.614;2023-04-25T00:21:17;97855.19;;;12.04;36.48
75945;BME280;64628;50.104;14.614;2023-04-25T00:23:43;97855.46;;;11.88;36.47
75945;BME280;64628;50.104;14.614;2023-04-25T00:26:08;97855.53;;;12.04;36.30
75945;BME280;64628;50.104;14.614;2023-04-25T00:28:34;97854.20;;;12.11;36.15
75945;BME280;64628;50.104;14.614;2023-04-25T00:30:59;97850.76;;;12.16;36.22
75945;BME280;64628;50.104;14.614;2023-04-25T00:33:25;97854.48;;;12.23;36.18
75945;BME280;64628;50.104;14.614;2023-04-25T00:35:50;97852.65;;;12.07;36.12
75945;BME280;64628;50.104;14.614;2023-04-25T00:38:15;97855.61;;;12.16;36.11
75945;BME280;64628;50.104;14.614;2023-04-25T00:40:41;97856.77;;;11.95;36.15
75945;BME280;64628;50.104;14.614;2023-04-25T00:43:06;97858.17;;;11.93;36.33
75945;BME280;64628;50.104;14.614;2023-04-25T00:45:31;97858.09;;;11.96;36.30
75945;BME280;64628;50.104;14.614;2023-04-25T00:47:57;97858.10;;;11.87;36.23
75945;BME280;64628;50.104;14.614;2023-04-25T00:50:22;97861.99;;;12.08;36.23
75945;BME280;64628;50.104;14.614;2023-04-25T00:52:48;97858.82;;;11.88;36.50
75945;BME280;64628;50.104;14.614;2023-04-25T00:55:13;97860.62;;;11.97;36.45
75945;BME280;64628;50.104;14.614;2023-04-25T00:57:39;97856.26;;;11.70;36.73
75945;BME280;64628;50.104;14.614;2023-04-25T01:00:06;97856.36;;;12.03;36.52
75945;BME280;64628;50.104;14.614;2023-04-25T01:02:30;97855.06;;;11.95;36.30
75945;BME280;64628;50.104;14.614;2023-04-25T01:04:55;97852.00;;;11.92;36.37
75945;BME280;64628;50.104;14.614;2023-04-25T01:07:20;97847.90;;;12.19;36.25
75945;BME280;64628;50.104;14.614;2023-04-25T01:09:46;97850.48;;;12.03;36.55
75945;BME280;64628;50.104;14.614;2023-04-25T01:12:11;97848.70;;;11.87;36.86
75945;BME280;64628;50.104;14.614;2023-04-25T01:14:37;97848.35;;;11.92;36.76
75945;BME280;64628;50.104;14.614;2023-04-25T01:17:02;97843.31;;;11.87;36.88
75945;BME280;64628;50.104;14.614;2023-04-25T01:19:28;97845.51;;;11.76;37.06
75945;BME280;64628;50.104;14.614;2023-04-25T01:21:53;97843.79;;;11.54;37.34
75945;BME280;64628;50.104;14.614;2023-04-25T01:24:18;97844.90;;;11.50;37.36
75945;BME280;64628;50.104;14.614;2023-04-25T01:26:44;97844.20;;;11.71;37.74
75945;BME280;64628;50.104;14.614;2023-04-25T01:29:10;97843.38;;;11.34;37.59
75945;BME280;64628;50.104;14.614;2023-04-25T01:31:35;97840.56;;;11.26;37.75
75945;BME280;64628;50.104;14.614;2023-04-25T01:34:00;97844.46;;;11.20;37.83
75945;BME280;64628;50.104;14.614;2023-04-25T01:36:26;97843.32;;;11.10;38.08
75945;BME280;64628;50.104;14.614;2023-04-25T01:38:51;97840.26;;;11.50;38.30
75945;BME280;64628;50.104;14.614;2023-04-25T01:41:16;97840.21;;;11.33;38.58
75945;BME280;64628;50.104;14.614;2023-04-25T01:43:42;97840.08;;;10.77;38.74
75945;BME280;64628;50.104;14.614;2023-04-25T01:46:08;97841.50;;;11.03;39.13
75945;BME280;64628;50.104;14.614;2023-04-25T01:48:34;97837.86;;;11.07;39.07
75945;BME280;64628;50.104;14.614;2023-04-25T01:50:59;97836.56;;;11.04;39.22
75945;BME280;64628;50.104;14.614;2023-04-25T01:53:24;97836.22;;;11.04;39.22
75945;BME280;64628;50.104;14.614;2023-04-25T01:55:50;97839.02;;;11.03;39.27
75945;BME280;64628;50.104;14.614;2023-04-25T01:58:15;97839.50;;;11.05;39.27
75945;BME280;64628;50.104;14.614;2023-04-25T02:00:40;97841.21;;;11.07;39.35
75945;BME280;64628;50.104;14.614;2023-04-25T02:03:06;97845.49;;;10.83;39.24
75945;BME280;64628;50.104;14.614;2023-04-25T02:05:34;97844.33;;;10.95;39.46
75945;BME280;64628;50.104;14.614;2023-04-25T02:07:57;97843.47;;;10.88;39.51
75945;BME280;64628;50.104;14.614;2023-04-25T02:10:22;97849.61;;;10.67;39.88
75945;BME280;64628;50.104;14.614;2023-04-25T02:12:47;97851.15;;;10.52;40.14
75945;BME280;64628;50.104;14.614;2023-04-25T02:15:13;97850.61;;;10.83;40.34
75945;BME280;64628;50.104;14.614;2023-04-25T02:17:38;97849.68;;;10.20;40.16
75945;BME280;64628;50.104;14.614;2023-04-25T02:20:04;97851.14;;;10.39;40.25
75945;BME280;64628;50.104;14.614;2023-04-25T02:22:29;97848.22;;;10.79;40.40
75945;BME280;64628;50.104;14.614;2023-04-25T02:24:54;97850.18;;;10.29;40.45
75945;BME280;64628;50.104;14.614;2023-04-25T02:27:20;97848.42;;;10.57;40.42
75945;BME280;64628;50.104;14.614;2023-04-25T02:29:45;97846.49;;;10.52;40.50
75945;BME280;64628;50.104;14.614;2023-04-25T02:32:11;97845.98;;;10.26;40.58
75945;BME280;64628;50.104;14.614;2023-04-25T02:34:36;97844.08;;;10.76;40.53
75945;BME280;64628;50.104;14.614;2023-04-25T02:37:01;97840.92;;;10.44;40.76
75945;BME280;64628;50.104;14.614;2023-04-25T02:39:26;97831.68;;;10.52;40.52
75945;BME280;64628;50.104;14.614;2023-04-25T02:41:52;97825.86;;;10.53;40.45
75945;BME280;64628;50.104;14.614;2023-04-25T02:44:17;97822.46;;;10.72;40.50
75945;BME280;64628;50.104;14.614;2023-04-25T02:46:42;97819.56;;;10.43;40.54
75945;BME280;64628;50.104;14.614;2023-04-25T02:49:08;97819.08;;;10.62;40.73
75945;BME280;64628;50.104;14.614;2023-04-25T02:51:34;97816.27;;;10.35;40.79
75945;BME280;64628;50.104;14.614;2023-04-25T02:53:59;97817.03;;;10.01;40.91
75945;BME280;64628;50.104;14.614;2023-04-25T02:56:24;97814.29;;;10.18;40.95
75945;BME280;64628;50.104;14.614;2023-04-25T02:58:49;97811.36;;;10.16;40.91
75945;BME280;64628;50.104;14.614;2023-04-25T03:01:14;97808.76;;;10.08;40.96
75945;BME280;64628;50.104;14.614;2023-04-25T03:03:40;97818.51;;;10.16;41.33
75945;BME280;64628;50.104;14.614;2023-04-25T03:06:06;97816.20;;;9.87;41.40
75945;BME280;64628;50.104;14.614;2023-04-25T03:08:31;97816.89;;;9.82;41.42
75945;BME280;64628;50.104;14.614;2023-04-25T03:10:56;97818.72;;;10.05;41.47
75945;BME280;64628;50.104;14.614;2023-04-25T03:13:22;97818.09;;;9.99;41.63
75945;BME280;64628;50.104;14.614;2023-04-25T03:15:47;97822.34;;;9.65;41.85
75945;BME280;64628;50.104;14.614;2023-04-25T03:18:12;97824.45;;;9.70;42.14
75945;BME280;64628;50.104;14.614;2023-04-25T03:20:38;97821.57;;;9.67;42.08
75945;BME280;64628;50.104;14.614;2023-04-25T03:23:03;97825.51;;;9.38;41.99
75945;BME280;64628;50.104;14.614;2023-04-25T03:25:29;97822.10;;;9.54;42.06
75945;BME280;64628;50.104;14.614;2023-04-25T03:27:54;97818.27;;;9.46;42.31
75945;BME280;64628;50.104;14.614;2023-04-25T03:30:19;97816.17;;;9.17;42.44
75945;BME280;64628;50.104;14.614;2023-04-25T03:32:45;97814.62;;;9.38;42.65
75945;BME280;64628;50.104;14.614;2023-04-25T03:35:11;97813.11;;;9.64;42.77
75945;BME280;64628;50.104;14.614;2023-04-25T03:37:35;97810.11;;;9.18;42.92
75945;BME280;64628;50.104;14.614;2023-04-25T03:40:01;97810.31;;;9.39;43.10
75945;BME280;64628;50.104;14.614;2023-04-25T03:42:26;97809.95;;;9.51;43.04
75945;BME280;64628;50.104;14.614;2023-04-25T03:44:52;97811.56;;;9.47;42.94
75945;BME280;64628;50.104;14.614;2023-04-25T03:47:17;97814.47;;;9.83;42.68
75945;BME280;64628;50.104;14.614;2023-04-25T03:49:43;97822.95;;;9.95;42.44
75945;BME280;64628;50.104;14.614;2023-04-25T03:52:08;97822.78;;;9.78;42.30
75945;BME280;64628;50.104;14.614;2023-04-25T03:54:34;97822.45;;;10.05;42.23
75945;BME280;64628;50.104;14.614;2023-04-25T03:56:59;97820.32;;;10.04;42.33
75945;BME280;64628;50.104;14.614;2023-04-25T03:59:25;97820.32;;;10.03;42.37
75945;BME280;64628;50.104;14.614;2023-04-25T04:01:51;97815.36;;;10.12;42.34
75945;BME280;64628;50.104;14.614;2023-04-25T04:04:16;97807.03;;;9.80;42.06
75945;BME280;64628;50.104;14.614;2023-04-25T04:06:41;97809.82;;;10.11;42.04
75945;BME280;64628;50.104;14.614;2023-04-25T04:09:07;97810.06;;;10.47;42.04
75945;BME280;64628;50.104;14.614;2023-04-25T04:11:33;97811.49;;;10.16;41.81
75945;BME280;64628;50.104;14.614;2023-04-25T04:13:58;97810.06;;;10.53;41.88
75945;BME280;64628;50.104;14.614;2023-04-25T04:16:25;97810.59;;;10.60;41.61
75945;BME280;64628;50.104;14.614;2023-04-25T04:18:49;97810.07;;;10.50;41.40
75945;BME280;64628;50.104;14.614;2023-04-25T04:21:15;97808.07;;;10.58;41.24
75945;BME280;64628;50.104;14.614;2023-04-25T04:23:41;97805.52;;;10.86;41.25
75945;BME280;64628;50.104;14.614;2023-04-25T04:26:06;97808.60;;;10.46;41.20
75945;BME280;64628;50.104;14.614;2023-04-25T04:28:31;97810.14;;;10.90;41.05
75945;BME280;64628;50.104;14.614;2023-04-25T04:30:56;97808.72;;;10.73;40.98
75945;BME280;64628;50.104;14.614;2023-04-25T04:33:21;97808.40;;;10.89;41.15
75945;BME280;64628;50.104;14.614;2023-04-25T04:35:47;97808.70;;;10.95;41.15
75945;BME280;64628;50.104;14.614;2023-04-25T04:38:12;97812.79;;;11.20;41.06
75945;BME280;64628;50.104;14.614;2023-04-25T04:40:38;97812.96;;;10.89;41.11
75945;BME280;64628;50.104;14.614;2023-04-25T04:43:03;97808.82;;;10.86;41.16
75945;BME280;64628;50.104;14.614;2023-04-25T04:45:39;97814.24;;;10.93;41.10
75945;BME280;64628;50.104;14.614;2023-04-25T04:47:54;97815.31;;;10.70;41.10
75945;BME280;64628;50.104;14.614;2023-04-25T04:50:20;97812.77;;;10.89;41.17
75945;BME280;64628;50.104;14.614;2023-04-25T04:52:45;97811.47;;;11.19;40.75
75945;BME280;64628;50.104;14.614;2023-04-25T04:55:11;97810.52;;;11.21;40.85
75945;BME280;64628;50.104;14.614;2023-04-25T04:57:36;97811.45;;;11.33;40.34
75945;BME280;64628;50.104;14.614;2023-04-25T05:00:02;97814.14;;;11.36;39.91
75945;BME280;64628;50.104;14.614;2023-04-25T05:02:27;97814.94;;;11.55;39.71
75945;BME280;64628;50.104;14.614;2023-04-25T05:04:52;97817.00;;;11.97;39.02
75945;BME280;64628;50.104;14.614;2023-04-25T05:07:18;97819.57;;;11.96;38.86
75945;BME280;64628;50.104;14.614;2023-04-25T05:09:44;97817.76;;;12.21;38.70
75945;BME280;64628;50.104;14.614;2023-04-25T05:12:09;97818.03;;;12.25;38.72
75945;BME280;64628;50.104;14.614;2023-04-25T05:14:34;97819.59;;;12.30;38.52
75945;BME280;64628;50.104;14.614;2023-04-25T05:16:59;97813.22;;;12.38;38.39
75945;BME280;64628;50.104;14.614;2023-04-25T05:19:25;97813.61;;;12.62;38.20
75945;BME280;64628;50.104;14.614;2023-04-25T05:21:50;97815.33;;;12.30;38.26
75945;BME280;64628;50.104;14.614;2023-04-25T05:24:15;97812.84;;;12.58;37.95
75945;BME280;64628;50.104;14.614;2023-04-25T05:26:40;97810.78;;;12.96;37.58
75945;BME280;64628;50.104;14.614;2023-04-25T05:29:06;97806.22;;;12.54;37.79
75945;BME280;64628;50.104;14.614;2023-04-25T05:31:31;97802.01;;;12.84;37.20
75945;BME280;64628;50.104;14.614;2023-04-25T05:33:57;97803.91;;;12.89;37.04
75945;BME280;64628;50.104;14.614;2023-04-25T05:36:22;97800.38;;;13.43;36.32
75945;BME280;64628;50.104;14.614;2023-04-25T05:38:47;97797.92;;;13.59;36.01
75945;BME280;64628;50.104;14.614;2023-04-25T05:41:13;97802.51;;;13.92;35.18
75945;BME280;64628;50.104;14.614;2023-04-25T05:43:38;97802.39;;;14.24;34.94
75945;BME280;64628;50.104;14.614;2023-04-25T05:46:04;97805.08;;;14.01;35.01
75945;BME280;64628;50.104;14.614;2023-04-25T05:48:29;97800.62;;;13.87;35.04
75945;BME280;64628;50.104;14.614;2023-04-25T05:50:54;97805.27;;;14.19;34.86
75945;BME280;64628;50.104;14.614;2023-04-25T05:53:20;97808.35;;;14.02;34.83
75945;BME280;64628;50.104;14.614;2023-04-25T05:55:46;97800.43;;;14.10;34.46
75945;BME280;64628;50.104;14.614;2023-04-25T05:58:10;97810.74;;;14.02;34.57
75945;BME280;64628;50.104;14.614;2023-04-25T06:00:35;97807.18;;;13.53;35.12
75945;BME280;64628;50.104;14.614;2023-04-25T06:03:01;97808.02;;;13.64;35.40
75945;BME280;64628;50.104;14.614;2023-04-25T06:05:26;97806.61;;;13.51;35.69
75945;BME280;64628;50.104;14.614;2023-04-25T06:07:52;97812.44;;;13.18;36.00
75945;BME280;64628;50.104;14.614;2023-04-25T06:10:17;97812.12;;;13.30;35.91
75945;BME280;64628;50.104;14.614;2023-04-25T06:12:43;97810.81;;;13.21;36.45
75945;BME280;64628;50.104;14.614;2023-04-25T06:15:09;97808.99;;;13.17;36.77
75945;BME280;64628;50.104;14.614;2023-04-25T06:17:34;97807.82;;;13.06;36.97
75945;BME280;64628;50.104;14.614;2023-04-25T06:19:58;97804.71;;;12.72;37.10
75945;BME280;64628;50.104;14.614;2023-04-25T06:22:24;97811.51;;;13.25;36.91
75945;BME280;64628;50.104;14.614;2023-04-25T06:24:50;97811.86;;;13.64;36.33
75945;BME280;64628;50.104;14.614;2023-04-25T06:27:15;97807.28;;;12.94;36.26
75945;BME280;64628;50.104;14.614;2023-04-25T06:29:41;97807.32;;;13.45;35.95
75945;BME280;64628;50.104;14.614;2023-04-25T06:32:06;97807.79;;;14.42;34.86
75945;BME280;64628;50.104;14.614;2023-04-25T06:34:32;97803.00;;;15.05;33.66
75945;BME280;64628;50.104;14.614;2023-04-25T06:36:57;97801.17;;;15.55;32.61
75945;BME280;64628;50.104;14.614;2023-04-25T06:39:22;97801.56;;;15.82;31.79
75945;BME280;64628;50.104;14.614;2023-04-25T06:41:47;97801.56;;;16.33;31.04
75945;BME280;64628;50.104;14.614;2023-04-25T06:44:12;97796.86;;;16.28;31.20
75945;BME280;64628;50.104;14.614;2023-04-25T06:46:38;97795.40;;;16.08;31.52
75945;BME280;64628;50.104;14.614;2023-04-25T06:49:03;97798.17;;;15.33;32.34
75945;BME280;64628;50.104;14.614;2023-04-25T06:51:28;97792.71;;;15.66;32.21
75945;BME280;64628;50.104;14.614;2023-04-25T06:53:54;97796.35;;;15.38;32.65
75945;BME280;64628;50.104;14.614;2023-04-25T06:56:19;97795.32;;;15.03;32.96
75945;BME280;64628;50.104;14.614;2023-04-25T06:58:45;97793.83;;;15.27;32.95
75945;BME280;64628;50.104;14.614;2023-04-25T07:01:10;97790.91;;;15.13;32.84
75945;BME280;64628;50.104;14.614;2023-04-25T07:03:36;97789.31;;;15.76;32.79
75945;BME280;64628;50.104;14.614;2023-04-25T07:06:01;97787.55;;;15.52;32.73
75945;BME280;64628;50.104;14.614;2023-04-25T07:08:26;97783.53;;;15.44;32.55
75945;BME280;64628;50.104;14.614;2023-04-25T07:10:52;97784.82;;;16.00;31.97
75945;BME280;64628;50.104;14.614;2023-04-25T07:13:17;97784.39;;;15.81;31.86
75945;BME280;64628;50.104;14.614;2023-04-25T07:15:43;97782.60;;;15.55;31.94
75945;BME280;64628;50.104;14.614;2023-04-25T07:18:08;97784.39;;;15.74;32.22
75945;BME280;64628;50.104;14.614;2023-04-25T07:20:34;97784.90;;;16.52;30.93
75945;BME280;64628;50.104;14.614;2023-04-25T07:22:59;97783.12;;;16.97;30.36
75945;BME280;64628;50.104;14.614;2023-04-25T07:25:24;97783.52;;;19.67;27.02
75945;BME280;64628;50.104;14.614;2023-04-25T07:27:50;97781.47;;;19.89;25.96
75945;BME280;64628;50.104;14.614;2023-04-25T07:30:16;97783.89;;;19.42;26.69
75945;BME280;64628;50.104;14.614;2023-04-25T07:32:41;97783.55;;;18.61;27.51
75945;BME280;64628;50.104;14.614;2023-04-25T07:35:08;97787.11;;;17.52;28.64
75945;BME280;64628;50.104;14.614;2023-04-25T07:37:33;97787.30;;;16.57;30.07
75945;BME280;64628;50.104;14.614;2023-04-25T07:39:58;97790.40;;;16.11;31.18
75945;BME280;64628;50.104;14.614;2023-04-25T07:42:24;97789.31;;;15.48;31.62
75945;BME280;64628;50.104;14.614;2023-04-25T07:44:49;97793.20;;;15.98;31.94
75945;BME280;64628;50.104;14.614;2023-04-25T07:47:15;97796.31;;;15.79;32.22
75945;BME280;64628;50.104;14.614;2023-04-25T07:49:40;97795.88;;;15.51;32.59
75945;BME280;64628;50.104;14.614;2023-04-25T07:52:06;97798.32;;;15.50;32.90
75945;BME280;64628;50.104;14.614;2023-04-25T07:54:32;97798.44;;;14.85;33.49
75945;BME280;64628;50.104;14.614;2023-04-25T07:56:56;97799.44;;;14.84;33.93
75945;BME280;64628;50.104;14.614;2023-04-25T07:59:22;97798.67;;;14.79;34.17
75945;BME280;64628;50.104;14.614;2023-04-25T08:01:48;97796.48;;;14.70;34.25
75945;BME280;64628;50.104;14.614;2023-04-25T08:04:13;97796.02;;;14.77;34.00
75945;BME280;64628;50.104;14.614;2023-04-25T08:06:38;97790.32;;;14.98;34.03
75945;BME280;64628;50.104;14.614;2023-04-25T08:09:04;97784.84;;;15.55;33.50
75945;BME280;64628;50.104;14.614;2023-04-25T08:11:29;97780.90;;;15.87;32.83
75945;BME280;64628;50.104;14.614;2023-04-25T08:13:55;97775.06;;;17.07;30.94
75945;BME280;64628;50.104;14.614;2023-04-25T08:16:21;97777.12;;;18.91;28.35
75945;BME280;64628;50.104;14.614;2023-04-25T08:18:46;97774.82;;;20.88;25.07
75945;BME280;64628;50.104;14.614;2023-04-25T08:21:12;97772.98;;;22.09;24.17
75945;BME280;64628;50.104;14.614;2023-04-25T08:23:38;97765.60;;;23.46;22.90
75945;BME280;64628;50.104;14.614;2023-04-25T08:26:03;97764.44;;;23.68;21.37
75945;BME280;64628;50.104;14.614;2023-04-25T08:28:28;97765.67;;;22.71;21.77
75945;BME280;64628;50.104;14.614;2023-04-25T08:30:54;97764.59;;;22.59;21.96
75945;BME280;64628;50.104;14.614;2023-04-25T08:33:19;97765.99;;;21.76;22.98
75945;BME280;64628;50.104;14.614;2023-04-25T08:35:45;97767.30;;;22.97;22.28
75945;BME280;64628;50.104;14.614;2023-04-25T08:38:10;97766.12;;;23.65;21.24
75945;BME280;64628;50.104;14.614;2023-04-25T08:40:38;97768.92;;;24.65;20.41
75945;BME280;64628;50.104;14.614;2023-04-25T08:43:01;97767.95;;;26.49;18.92
75945;BME280;64628;50.104;14.614;2023-04-25T08:45:27;97768.73;;;26.25;19.21
75945;BME280;64628;50.104;14.614;2023-04-25T08:47:52;97770.40;;;24.95;19.15
75945;BME280;64628;50.104;14.614;2023-04-25T08:50:17;97769.10;;;24.18;20.37
75945;BME280;64628;50.104;14.614;2023-04-25T08:52:44;97764.77;;;23.72;20.86
75945;BME280;64628;50.104;14.614;2023-04-25T08:55:09;97765.72;;;22.85;21.48
75945;BME280;64628;50.104;14.614;2023-04-25T08:57:33;97768.71;;;22.84;22.42
75945;BME280;64628;50.104;14.614;2023-04-25T08:59:58;97770.47;;;22.75;22.75
75945;BME280;64628;50.104;14.614;2023-04-25T09:02:24;97773.25;;;22.75;22.77
75945;BME280;64628;50.104;14.614;2023-04-25T09:04:50;97771.68;;;22.31;23.30
75945;BME280;64628;50.104;14.614;2023-04-25T09:07:14;97768.40;;;22.19;22.61
75945;BME280;64628;50.104;14.614;2023-04-25T09:09:39;97766.66;;;22.21;23.14
75945;BME280;64628;50.104;14.614;2023-04-25T09:12:05;97770.67;;;21.65;23.02
75945;BME280;64628;50.104;14.614;2023-04-25T09:14:30;97767.93;;;21.38;23.82
75945;BME280;64628;50.104;14.614;2023-04-25T09:17:01;97773.72;;;20.68;24.85
75945;BME280;64628;50.104;14.614;2023-04-25T09:19:21;97774.42;;;19.60;25.78
75945;BME280;64628;50.104;14.614;2023-04-25T09:21:49;97776.06;;;19.27;25.91
75945;BME280;64628;50.104;14.614;2023-04-25T09:24:12;97777.55;;;18.93;25.52
75945;BME280;64628;50.104;14.614;2023-04-25T09:26:38;97780.69;;;18.84;26.75
75945;BME280;64628;50.104;14.614;2023-04-25T09:29:05;97781.26;;;18.58;27.95
75945;BME280;64628;50.104;14.614;2023-04-25T09:31:28;97789.35;;;18.03;29.03
75945;BME280;64628;50.104;14.614;2023-04-25T09:33:59;97790.44;;;17.68;30.10
75945;BME280;64628;50.104;14.614;2023-04-25T09:36:26;97787.03;;;17.92;30.18
75945;BME280;64628;50.104;14.614;2023-04-25T09:38:46;97790.44;;;18.19;30.53
75945;BME280;64628;50.104;14.614;2023-04-25T09:41:10;97795.53;;;18.31;29.20
75945;BME280;64628;50.104;14.614;2023-04-25T09:43:36;97797.23;;;18.57;29.03
75945;BME280;64628;50.104;14.614;2023-04-25T09:46:01;97799.84;;;18.79;28.00
75945;BME280;64628;50.104;14.614;2023-04-25T09:48:28;97799.50;;;18.09;28.28
75945;BME280;64628;50.104;14.614;2023-04-25T09:53:17;97797.19;;;17.13;29.79
75945;BME280;64628;50.104;14.614;2023-04-25T09:55:43;97802.76;;;16.67;31.10
75945;BME280;64628;50.104;14.614;2023-04-25T09:58:09;97802.62;;;16.38;31.82
75945;BME280;64628;50.104;14.614;2023-04-25T10:00:34;97811.51;;;16.17;32.06
75945;BME280;64628;50.104;14.614;2023-04-25T10:03:00;97815.05;;;16.17;32.43
75945;BME280;64628;50.104;14.614;2023-04-25T10:05:25;97819.44;;;15.77;34.18
75945;BME280;64628;50.104;14.614;2023-04-25T10:07:49;97822.69;;;15.24;34.79
75945;BME280;64628;50.104;14.614;2023-04-25T10:10:15;97830.71;;;15.31;35.65
75945;BME280;64628;50.104;14.614;2023-04-25T10:12:41;97840.44;;;14.68;36.03
75945;BME280;64628;50.104;14.614;2023-04-25T10:15:09;97836.69;;;14.45;36.33
75945;BME280;64628;50.104;14.614;2023-04-25T10:17:31;97827.86;;;15.29;36.42
75945;BME280;64628;50.104;14.614;2023-04-25T10:19:57;97826.06;;;15.56;34.39
75945;BME280;64628;50.104;14.614;2023-04-25T10:22:29;97834.84;;;16.09;33.43
75945;BME280;64628;50.104;14.614;2023-04-25T10:24:50;97833.52;;;16.54;32.93
75945;BME280;64628;50.104;14.614;2023-04-25T10:27:14;97834.94;;;17.12;33.02
75945;BME280;64628;50.104;14.614;2023-04-25T10:29:39;97839.66;;;16.74;33.13
75945;BME280;64628;50.104;14.614;2023-04-25T10:32:04;97843.65;;;16.93;32.57
75945;BME280;64628;50.104;14.614;2023-04-25T10:34:40;97845.60;;;17.57;31.78
75945;BME280;64628;50.104;14.614;2023-04-25T10:36:54;97845.74;;;16.68;32.51
75945;BME280;64628;50.104;14.614;2023-04-25T10:39:24;97849.95;;;16.51;32.95
75945;BME280;64628;50.104;14.614;2023-04-25T10:41:47;97848.70;;;16.08;32.91
75945;BME280;64628;50.104;14.614;2023-04-25T10:44:11;97850.53;;;15.47;34.25
75945;BME280;64628;50.104;14.614;2023-04-25T10:46:37;97849.78;;;15.81;34.85
75945;BME280;64628;50.104;14.614;2023-04-25T10:49:02;97856.10;;;15.36;35.18
75945;BME280;64628;50.104;14.614;2023-04-25T10:51:29;97858.08;;;14.57;35.64
75945;BME280;64628;50.104;14.614;2023-04-25T10:53:58;97871.83;;;14.49;36.05
75945;BME280;64628;50.104;14.614;2023-04-25T10:56:20;97871.29;;;14.20;36.06
75945;BME280;64628;50.104;14.614;2023-04-25T10:58:45;97867.84;;;14.31;36.66
75945;BME280;64628;50.104;14.614;2023-04-25T11:01:09;97876.12;;;14.61;36.40
75945;BME280;64628;50.104;14.614;2023-04-25T11:03:40;97872.52;;;14.35;35.35
75945;BME280;64628;50.104;14.614;2023-04-25T11:06:00;97878.10;;;14.31;34.86
75945;BME280;64628;50.104;14.614;2023-04-25T11:08:32;97879.03;;;13.93;34.99
75945;BME280;64628;50.104;14.614;2023-04-25T11:10:50;97883.51;;;14.05;34.97
75945;BME280;64628;50.104;14.614;2023-04-25T11:13:15;97881.25;;;14.04;34.50
75945;BME280;64628;50.104;14.614;2023-04-25T11:15:41;97883.25;;;14.14;34.46
75945;BME280;64628;50.104;14.614;2023-04-25T11:18:06;97886.15;;;13.46;34.94
75945;BME280;64628;50.104;14.614;2023-04-25T11:20:31;97884.51;;;13.61;35.73
75945;BME280;64628;50.104;14.614;2023-04-25T11:22:58;97882.82;;;14.07;35.87
75945;BME280;64628;50.104;14.614;2023-04-25T11:25:23;97886.98;;;13.55;36.20
75945;BME280;64628;50.104;14.614;2023-04-25T11:27:51;97889.79;;;13.60;36.09
75945;BME280;64628;50.104;14.614;2023-04-25T11:30:15;97896.49;;;13.94;36.01
75945;BME280;64628;50.104;14.614;2023-04-25T11:32:40;97902.23;;;13.99;36.06
75945;BME280;64628;50.104;14.614;2023-04-25T11:35:05;97904.81;;;14.02;35.74
75945;BME280;64628;50.104;14.614;2023-04-25T11:37:29;97905.71;;;14.21;35.68
75945;BME280;64628;50.104;14.614;2023-04-25T11:39:54;97911.60;;;14.77;34.36
75945;BME280;64628;50.104;14.614;2023-04-25T11:42:19;97908.00;;;15.42;34.02
75945;BME280;64628;50.104;14.614;2023-04-25T11:44:45;97904.70;;;15.79;33.58
75945;BME280;64628;50.104;14.614;2023-04-25T11:47:11;97901.06;;;16.36;32.70
75945;BME280;64628;50.104;14.614;2023-04-25T11:49:37;97900.05;;;16.68;32.31
75945;BME280;64628;50.104;14.614;2023-04-25T11:52:03;97897.60;;;17.41;30.90
75945;BME280;64628;50.104;14.614;2023-04-25T11:54:28;97898.02;;;18.41;29.58
75945;BME280;64628;50.104;14.614;2023-04-25T11:56:53;97899.12;;;18.55;28.49
75945;BME280;64628;50.104;14.614;2023-04-25T11:59:24;97895.54;;;18.64;28.26
75945;BME280;64628;50.104;14.614;2023-04-25T12:01:49;97893.83;;;18.43;28.79
75945;BME280;64628;50.104;14.614;2023-04-25T12:04:12;97884.47;;;18.69;28.71
75945;BME280;64628;50.104;14.614;2023-04-25T12:06:37;97889.44;;;18.11;27.78
75945;BME280;64628;50.104;14.614;2023-04-25T12:09:02;97890.40;;;18.06;28.55
75945;BME280;64628;50.104;14.614;2023-04-25T12:11:25;97893.40;;;18.30;27.88
75945;BME280;64628;50.104;14.614;2023-04-25T12:13:52;97889.29;;;17.97;27.17
75945;BME280;64628;50.104;14.614;2023-04-25T12:16:16;97890.41;;;18.95;28.07
75945;BME280;64628;50.104;14.614;2023-04-25T12:18:41;97886.04;;;20.06;26.58
75945;BME280;64628;50.104;14.614;2023-04-25T12:21:06;97884.29;;;20.74;23.91
75945;BME280;64628;50.104;14.614;2023-04-25T12:23:32;97882.41;;;20.95;23.83
75945;BME280;64628;50.104;14.614;2023-04-25T12:25:57;97880.13;;;20.85;23.98
75945;BME280;64628;50.104;14.614;2023-04-25T12:28:23;97875.57;;;19.62;24.84
75945;BME280;64628;50.104;14.614;2023-04-25T12:30:54;97877.24;;;20.40;25.18
75945;BME280;64628;50.104;14.614;2023-04-25T12:33:13;97876.88;;;20.47;23.89
75945;BME280;64628;50.104;14.614;2023-04-25T12:35:39;97871.07;;;20.84;23.89
75945;BME280;64628;50.104;14.614;2023-04-25T12:38:04;97879.08;;;21.42;22.67
75945;BME280;64628;50.104;14.614;2023-04-25T12:40:29;97881.29;;;20.62;24.02
75945;BME280;64628;50.104;14.614;2023-04-25T12:42:55;97887.08;;;19.96;23.58